createdAt,value
2018-02-21T00:00:37.226Z,-1.88
2018-02-21T00:01:37.187Z,-1.81
2018-02-21T00:02:37.157Z,-1.79
2018-02-21T00:03:37.120Z,-1.89
2018-02-21T00:04:37.115Z,-1.91
2018-02-21T00:05:37.057Z,-1.81
2018-02-21T00:06:37.022Z,-1.85
2018-02-21T00:07:36.986Z,-1.76
2018-02-21T00:08:36.955Z,-1.79
2018-02-21T00:09:36.949Z,-1.82
2018-02-21T00:10:36.895Z,-1.81
2018-02-21T00:11:36.862Z,-1.81
2018-02-21T00:12:36.820Z,-1.78
2018-02-21T00:13:36.788Z,-1.84
2018-02-21T00:14:36.790Z,-1.84
2018-02-21T00:15:36.723Z,-1.84
2018-02-21T00:16:36.710Z,-1.79
2018-02-21T00:17:36.655Z,-1.86
2018-02-21T00:18:36.627Z,-1.81
2018-02-21T00:19:36.622Z,-1.88
2018-02-21T00:20:36.554Z,-1.79
2018-02-21T00:21:36.521Z,-1.86
2018-02-21T00:22:36.507Z,-1.94
2018-02-21T00:23:36.457Z,-1.88
2018-02-21T00:24:36.445Z,-1.85
2018-02-21T00:25:36.387Z,-1.82
2018-02-21T00:26:36.355Z,-1.79
2018-02-21T00:27:36.320Z,-1.85
2018-02-21T00:28:36.291Z,-1.81
2018-02-21T00:29:36.281Z,-1.85
2018-02-21T00:30:36.222Z,-1.82
2018-02-21T00:31:36.186Z,-1.84
2018-02-21T00:32:36.158Z,-1.78
2018-02-21T00:33:36.120Z,-1.86
2018-02-21T00:34:36.113Z,-1.89
2018-02-21T00:35:36.056Z,-1.86
2018-02-21T00:36:36.024Z,-1.84
2018-02-21T00:37:35.988Z,-1.79
2018-02-21T00:38:35.966Z,-1.84
2018-02-21T00:39:35.955Z,-1.81
2018-02-21T00:40:35.888Z,-1.82
2018-02-21T00:41:35.863Z,-1.84
2018-02-21T00:42:35.824Z,-1.94
2018-02-21T00:43:35.791Z,-1.96
2018-02-21T00:44:35.784Z,-1.96
2018-02-21T00:45:35.728Z,-1.89
2018-02-21T00:46:35.699Z,-1.92
2018-02-21T00:47:35.658Z,-1.94
2018-02-21T00:48:35.627Z,-1.91
2018-02-21T00:49:35.621Z,-1.89
2018-02-21T00:50:35.555Z,-1.96
2018-02-21T00:51:35.566Z,-2.02
2018-02-21T00:52:35.539Z,-1.99
2018-02-21T00:53:35.456Z,-1.99
2018-02-21T00:54:35.422Z,-1.96
2018-02-21T00:55:35.989Z,-1.91
2018-02-21T00:56:35.355Z,-1.96
2018-02-21T00:57:35.371Z,-2.03
2018-02-21T00:58:35.289Z,-2.02
2018-02-21T00:59:35.280Z,-1.99
2018-02-21T01:00:35.230Z,-1.97
2018-02-21T01:01:35.187Z,-1.99
2018-02-21T01:02:35.158Z,-1.94
2018-02-21T01:03:35.152Z,-1.97
2018-02-21T01:04:35.088Z,-1.97
2018-02-21T01:05:35.059Z,-1.99
2018-02-21T01:06:35.024Z,-1.99
2018-02-21T01:07:35.039Z,-1.99
2018-02-21T01:08:34.993Z,-2.00
2018-02-21T01:09:34.933Z,-1.96
2018-02-21T01:10:34.888Z,-1.99
2018-02-21T01:11:34.856Z,-1.99
2018-02-21T01:12:34.819Z,-1.85
2018-02-21T01:13:34.789Z,-1.91
2018-02-21T01:14:34.818Z,-1.91
2018-02-21T01:15:34.719Z,-1.92
2018-02-21T01:16:34.686Z,-1.96
2018-02-21T01:17:34.659Z,-1.96
2018-02-21T01:18:34.621Z,-1.97
2018-02-21T01:19:34.590Z,-1.89
2018-02-21T01:20:34.596Z,-1.92
2018-02-21T01:21:34.521Z,-1.92
2018-02-21T01:22:34.488Z,-1.96
2018-02-21T01:23:34.458Z,-1.94
2018-02-21T01:24:34.417Z,-1.99
2018-02-21T01:25:34.424Z,-1.88
2018-02-21T01:26:34.355Z,-2.00
2018-02-21T01:27:34.318Z,-1.94
2018-02-21T01:28:34.288Z,-1.96
2018-02-21T01:29:34.253Z,-2.02
2018-02-21T01:30:34.225Z,-1.99
2018-02-21T01:31:34.227Z,-1.96
2018-02-21T01:32:34.155Z,-1.94
2018-02-21T01:33:34.125Z,-2.02
2018-02-21T01:34:34.087Z,-1.99
2018-02-21T01:35:34.050Z,-2.07
2018-02-21T01:36:34.017Z,-2.03
2018-02-21T01:37:34.036Z,-2.00
2018-02-21T01:38:33.952Z,-2.06
2018-02-21T01:39:33.918Z,-2.05
2018-02-21T01:40:33.889Z,-2.15
2018-02-21T01:41:34.494Z,-2.12
2018-02-21T01:42:33.822Z,-2.10
2018-02-21T01:43:33.848Z,-2.14
2018-02-21T01:44:33.750Z,-2.14
2018-02-21T01:45:33.732Z,-2.17
2018-02-21T01:46:34.499Z,-2.14
2018-02-21T01:47:33.652Z,-2.17
2018-02-21T01:48:33.652Z,-2.12
2018-02-21T01:49:33.623Z,-2.14
2018-02-21T01:50:33.556Z,-2.21
2018-02-21T01:51:33.517Z,-2.23
2018-02-21T01:52:33.489Z,-2.10
2018-02-21T01:53:33.448Z,-2.18
2018-02-21T01:54:33.414Z,-2.17
2018-02-21T01:55:33.415Z,-2.15
2018-02-21T01:56:33.355Z,-2.18
2018-02-21T01:57:33.313Z,-2.25
2018-02-21T01:58:33.286Z,-2.28
2018-02-21T01:59:33.286Z,-2.23
2018-02-21T02:00:33.216Z,-2.24
2018-02-21T02:01:33.184Z,-2.27
2018-02-21T02:02:33.154Z,-2.27
2018-02-21T02:03:33.116Z,-2.21
2018-02-21T02:04:33.088Z,-2.28
2018-02-21T02:05:33.073Z,-2.27
2018-02-21T02:06:33.016Z,-2.24
2018-02-21T02:07:32.981Z,-2.27
2018-02-21T02:08:32.944Z,-2.27
2018-02-21T02:09:32.952Z,-2.27
2018-02-21T02:10:32.879Z,-2.27
2018-02-21T02:11:32.849Z,-2.25
2018-02-21T02:12:32.833Z,-2.28
2018-02-21T02:13:32.777Z,-2.21
2018-02-21T02:14:32.748Z,-2.27
2018-02-21T02:15:32.737Z,-2.21
2018-02-21T02:16:32.682Z,-2.32
2018-02-21T02:17:32.645Z,-2.28
2018-02-21T02:18:32.610Z,-2.21
2018-02-21T02:19:32.623Z,-2.20
2018-02-21T02:20:32.546Z,-2.24
2018-02-21T02:21:32.523Z,-2.25
2018-02-21T02:22:32.479Z,-2.27
2018-02-21T02:23:32.447Z,-2.25
2018-02-21T02:24:32.406Z,-2.25
2018-02-21T02:25:32.403Z,-2.27
2018-02-21T02:26:32.342Z,-2.21
2018-02-21T02:27:32.319Z,-2.28
2018-02-21T02:28:32.286Z,-2.28
2018-02-21T02:29:32.293Z,-2.25
2018-02-21T02:30:32.209Z,-2.24
2018-02-21T02:31:32.181Z,-2.24
2018-02-21T02:32:32.146Z,-2.25
2018-02-21T02:33:32.148Z,-2.39
2018-02-21T02:34:32.082Z,-2.40
2018-02-21T02:35:32.078Z,-2.39
2018-02-21T02:36:32.006Z,-2.44
2018-02-21T02:37:31.979Z,-2.39
2018-02-21T02:38:31.938Z,-2.37
2018-02-21T02:39:31.943Z,-2.55
2018-02-21T02:40:31.880Z,-2.39
2018-02-21T02:41:31.842Z,-2.49
2018-02-21T02:42:31.806Z,-2.46
2018-02-21T02:43:31.769Z,-2.49
2018-02-21T02:44:31.735Z,-2.36
2018-02-21T02:45:31.731Z,-2.50
2018-02-21T02:46:31.670Z,-2.49
2018-02-21T02:47:31.635Z,-2.55
2018-02-21T02:48:31.606Z,-2.53
2018-02-21T02:49:31.599Z,-2.49
2018-02-21T02:50:31.535Z,-2.54
2018-02-21T02:51:31.506Z,-2.61
2018-02-21T02:52:31.474Z,-2.60
2018-02-21T02:53:31.460Z,-2.55
2018-02-21T02:54:31.401Z,-2.57
2018-02-21T02:55:31.371Z,-2.60
2018-02-21T02:56:31.338Z,-2.62
2018-02-21T02:57:31.305Z,-2.67
2018-02-21T02:58:31.296Z,-2.62
2018-02-21T02:59:31.234Z,-2.64
2018-02-21T03:00:31.197Z,-2.67
2018-02-21T03:01:31.173Z,-2.64
2018-02-21T03:02:31.144Z,-2.67
2018-02-21T03:03:31.122Z,-2.64
2018-02-21T03:04:31.062Z,-2.62
2018-02-21T03:05:31.033Z,-2.61
2018-02-21T03:06:31.006Z,-2.61
2018-02-21T03:07:30.987Z,-2.70
2018-02-21T03:08:30.955Z,-2.67
2018-02-21T03:09:30.895Z,-2.58
2018-02-21T03:10:30.865Z,-2.53
2018-02-21T03:11:30.824Z,-2.62
2018-02-21T03:12:30.795Z,-2.54
2018-02-21T03:13:30.784Z,-2.61
2018-02-21T03:14:30.724Z,-2.61
2018-02-21T03:15:30.694Z,-2.67
2018-02-21T03:16:30.664Z,-2.64
2018-02-21T03:17:30.626Z,-2.65
2018-02-21T03:18:30.620Z,-2.62
2018-02-21T03:19:30.568Z,-2.73
2018-02-21T03:20:30.525Z,-2.76
2018-02-21T03:21:30.494Z,-2.72
2018-02-21T03:22:30.457Z,-2.72
2018-02-21T03:23:30.445Z,-2.73
2018-02-21T03:24:30.386Z,-2.81
2018-02-21T03:25:30.353Z,-2.78
2018-02-21T03:26:30.329Z,-2.78
2018-02-21T03:27:30.301Z,-2.79
2018-02-21T03:28:30.291Z,-2.75
2018-02-21T03:29:30.231Z,-2.78
2018-02-21T03:30:30.196Z,-2.81
2018-02-21T03:31:30.154Z,-2.76
2018-02-21T03:32:30.130Z,-2.83
2018-02-21T03:33:30.116Z,-2.81
2018-02-21T03:34:30.058Z,-2.76
2018-02-21T03:35:30.016Z,-2.82
2018-02-21T03:36:29.981Z,-2.90
2018-02-21T03:37:29.949Z,-2.90
2018-02-21T03:38:29.944Z,-2.85
2018-02-21T03:39:29.877Z,-2.82
2018-02-21T03:40:29.843Z,-2.79
2018-02-21T03:41:29.830Z,-2.75
2018-02-21T03:42:29.778Z,-2.82
2018-02-21T03:43:29.769Z,-2.82
2018-02-21T03:44:29.708Z,-2.82
2018-02-21T03:45:29.679Z,-2.83
2018-02-21T03:46:29.648Z,-2.79
2018-02-21T03:47:29.632Z,-2.78
2018-02-21T03:48:29.574Z,-2.75
2018-02-21T03:49:29.546Z,-2.81
2018-02-21T03:50:29.508Z,-2.85
2018-02-21T03:51:29.477Z,-2.81
2018-02-21T03:52:29.462Z,-2.81
2018-02-21T03:53:29.422Z,-2.79
2018-02-21T03:54:29.371Z,-2.88
2018-02-21T03:55:29.369Z,-2.82
2018-02-21T03:56:29.307Z,-2.82
2018-02-21T03:57:29.274Z,-2.83
2018-02-21T03:58:29.235Z,-2.86
2018-02-21T03:59:29.197Z,-2.86
2018-02-21T04:00:29.202Z,-2.82
2018-02-21T04:01:29.139Z,-2.88
2018-02-21T04:02:29.098Z,-2.96
2018-02-21T04:03:29.067Z,-2.93
2018-02-21T04:04:29.030Z,-2.99
2018-02-21T04:05:28.997Z,-2.86
2018-02-21T04:06:29.004Z,-2.85
2018-02-21T04:07:28.930Z,-2.88
2018-02-21T04:08:28.894Z,-2.99
2018-02-21T04:09:28.862Z,-2.90
2018-02-21T04:10:28.839Z,-2.94
2018-02-21T04:11:28.791Z,-2.91
2018-02-21T04:12:28.798Z,-2.96
2018-02-21T04:13:28.723Z,-2.94
2018-02-21T04:14:28.694Z,-2.94
2018-02-21T04:15:28.654Z,-2.96
2018-02-21T04:16:28.621Z,-2.91
2018-02-21T04:17:28.586Z,-2.96
2018-02-21T04:18:28.581Z,-2.99
2018-02-21T04:19:28.520Z,-2.94
2018-02-21T04:20:28.487Z,-2.93
2018-02-21T04:21:28.452Z,-3.00
2018-02-21T04:22:28.423Z,-2.94
2018-02-21T04:23:28.423Z,-2.94
2018-02-21T04:24:28.356Z,-3.03
2018-02-21T04:25:28.315Z,-3.06
2018-02-21T04:26:28.332Z,-3.01
2018-02-21T04:27:28.275Z,-3.06
2018-02-21T04:28:28.240Z,-3.04
2018-02-21T04:29:28.241Z,-3.00
2018-02-21T04:30:28.172Z,-3.06
2018-02-21T04:31:28.136Z,-3.14
2018-02-21T04:32:28.105Z,-3.15
2018-02-21T04:33:28.073Z,-3.11
2018-02-21T04:34:28.039Z,-3.25
2018-02-21T04:35:28.027Z,-3.28
2018-02-21T04:36:28.043Z,-3.33
2018-02-21T04:37:27.930Z,-3.32
2018-02-21T04:38:27.905Z,-3.33
2018-02-21T04:39:27.864Z,-3.35
2018-02-21T04:40:27.873Z,-3.35
2018-02-21T04:41:27.805Z,-3.40
2018-02-21T04:42:27.760Z,-3.42
2018-02-21T04:43:27.727Z,-3.38
2018-02-21T04:44:27.703Z,-3.36
2018-02-21T04:45:27.660Z,-3.40
2018-02-21T04:46:27.665Z,-3.45
2018-02-21T04:47:27.592Z,-3.38
2018-02-21T04:48:27.571Z,-3.42
2018-02-21T04:49:27.529Z,-3.38
2018-02-21T04:50:27.500Z,-3.43
2018-02-21T04:51:27.452Z,-3.45
2018-02-21T04:52:27.449Z,-3.57
2018-02-21T04:53:27.386Z,-3.60
2018-02-21T04:54:27.362Z,-3.58
2018-02-21T04:55:27.351Z,-3.58
2018-02-21T04:56:27.287Z,-3.60
2018-02-21T04:57:27.278Z,-3.58
2018-02-21T04:58:27.246Z,-3.57
2018-02-21T04:59:27.180Z,-3.63
2018-02-21T05:00:27.144Z,-3.65
2018-02-21T05:01:27.116Z,-3.65
2018-02-21T05:02:27.102Z,-3.66
2018-02-21T05:03:27.039Z,-3.63
2018-02-21T05:04:27.010Z,-3.61
2018-02-21T05:05:26.979Z,-3.50
2018-02-21T05:06:26.945Z,-3.50
2018-02-21T05:07:26.927Z,-3.53
2018-02-21T05:08:26.877Z,-3.50
2018-02-21T05:09:26.844Z,-3.57
2018-02-21T05:10:26.813Z,-3.53
2018-02-21T05:11:26.768Z,-3.40
2018-02-21T05:12:26.758Z,-3.53
2018-02-21T05:13:26.707Z,-3.42
2018-02-21T05:14:26.672Z,-3.43
2018-02-21T05:15:26.636Z,-3.56
2018-02-21T05:16:26.595Z,-3.47
2018-02-21T05:17:26.589Z,-3.42
2018-02-21T05:18:26.528Z,-3.40
2018-02-21T05:19:26.496Z,-3.40
2018-02-21T05:20:26.465Z,-3.40
2018-02-21T05:21:26.433Z,-3.40
2018-02-21T05:22:26.433Z,-3.40
2018-02-21T05:23:26.361Z,-3.45
2018-02-21T05:24:26.319Z,-3.40
2018-02-21T05:25:26.289Z,-3.43
2018-02-21T05:26:26.254Z,-3.39
2018-02-21T05:27:26.244Z,-3.39
2018-02-21T05:28:26.181Z,-3.53
2018-02-21T05:29:26.160Z,-3.40
2018-02-21T05:30:26.119Z,-3.38
2018-02-21T05:31:26.081Z,-3.39
2018-02-21T05:32:26.076Z,-3.43
2018-02-21T05:33:26.009Z,-3.39
2018-02-21T05:34:25.982Z,-3.42
2018-02-21T05:35:25.949Z,-3.40
2018-02-21T05:36:25.909Z,-3.39
2018-02-21T05:37:25.909Z,-3.38
2018-02-21T05:38:25.842Z,-3.43
2018-02-21T05:39:25.805Z,-3.38
2018-02-21T05:40:25.779Z,-3.36
2018-02-21T05:41:25.742Z,-3.40
2018-02-21T05:42:25.737Z,-3.43
2018-02-21T05:43:25.684Z,-3.39
2018-02-21T05:44:25.634Z,-3.43
2018-02-21T05:45:25.613Z,-3.38
2018-02-21T05:46:25.568Z,-3.40
2018-02-21T05:47:25.555Z,-3.40
2018-02-21T05:48:25.497Z,-3.36
2018-02-21T05:49:25.465Z,-3.39
2018-02-21T05:50:25.469Z,-3.43
2018-02-21T05:51:26.025Z,-3.43
2018-02-21T05:52:25.404Z,-3.47
2018-02-21T05:53:25.378Z,-3.39
2018-02-21T05:54:25.336Z,-3.38
2018-02-21T05:55:25.275Z,-3.42
2018-02-21T05:56:25.224Z,-3.43
2018-02-21T05:57:25.190Z,-3.43
2018-02-21T05:58:25.153Z,-3.48
2018-02-21T05:59:25.122Z,-3.47
2018-02-21T06:00:25.123Z,-3.39
2018-02-21T06:01:25.056Z,-3.48
2018-02-21T06:02:25.022Z,-3.54
2018-02-21T06:03:24.993Z,-3.47
2018-02-21T06:04:24.946Z,-3.45
2018-02-21T06:05:24.922Z,-3.42
2018-02-21T06:06:24.961Z,-3.43
2018-02-21T06:07:24.849Z,-3.43
2018-02-21T06:08:24.815Z,-3.50
2018-02-21T06:09:24.776Z,-3.51
2018-02-21T06:10:24.748Z,-3.48
2018-02-21T06:11:24.713Z,-3.51
2018-02-21T06:12:24.702Z,-3.51
2018-02-21T06:13:24.637Z,-3.42
2018-02-21T06:14:24.608Z,-3.47
2018-02-21T06:15:24.570Z,-3.43
2018-02-21T06:16:24.550Z,-3.51
2018-02-21T06:17:24.544Z,-3.48
2018-02-21T06:18:24.490Z,-3.48
2018-02-21T06:19:24.440Z,-3.50
2018-02-21T06:20:24.400Z,-3.48
2018-02-21T06:21:24.368Z,-3.48
2018-02-21T06:22:24.331Z,-3.51
2018-02-21T06:23:24.331Z,-3.47
2018-02-21T06:24:24.265Z,-3.45
2018-02-21T06:25:24.227Z,-3.40
2018-02-21T06:26:24.203Z,-3.40
2018-02-21T06:27:24.157Z,-3.42
2018-02-21T06:28:24.122Z,-3.42
2018-02-21T06:29:24.127Z,-3.45
2018-02-21T06:30:24.053Z,-3.47
2018-02-21T06:31:24.024Z,-3.36
2018-02-21T06:32:24.019Z,-3.38
2018-02-21T06:33:23.954Z,-3.39
2018-02-21T06:34:23.921Z,-3.38
2018-02-21T06:35:23.884Z,-3.35
2018-02-21T06:36:23.853Z,-3.36
2018-02-21T06:37:23.840Z,-3.32
2018-02-21T06:38:23.786Z,-3.29
2018-02-21T06:39:23.755Z,-3.32
2018-02-21T06:40:23.713Z,-3.32
2018-02-21T06:41:23.684Z,-3.33
2018-02-21T06:42:23.668Z,-3.33
2018-02-21T06:43:23.665Z,-3.22
2018-02-21T06:44:23.585Z,-3.32
2018-02-21T06:45:23.543Z,-3.28
2018-02-21T06:46:23.514Z,-3.18
2018-02-21T06:47:23.502Z,-3.28
2018-02-21T06:48:23.442Z,-3.22
2018-02-21T06:49:23.437Z,-3.28
2018-02-21T06:50:23.383Z,-3.21
2018-02-21T06:51:23.337Z,-3.25
2018-02-21T06:52:23.362Z,-3.29
2018-02-21T06:53:23.348Z,-3.18
2018-02-21T06:54:23.250Z,-3.21
2018-02-21T06:55:23.201Z,-3.18
2018-02-21T06:56:23.903Z,-3.15
2018-02-21T06:57:23.168Z,-3.15
2018-02-21T06:58:23.100Z,-3.09
2018-02-21T06:59:23.068Z,-3.12
2018-02-21T07:00:23.043Z,-3.18
2018-02-21T07:01:23.039Z,-3.09
2018-02-21T07:02:22.962Z,-3.06
2018-02-21T07:03:22.929Z,-3.09
2018-02-21T07:04:22.895Z,-3.06
2018-02-21T07:05:22.863Z,-3.04
2018-02-21T07:06:22.829Z,-3.17
2018-02-21T07:07:22.828Z,-3.00
2018-02-21T07:08:22.767Z,-3.03
2018-02-21T07:09:22.728Z,-2.91
2018-02-21T07:10:22.704Z,-3.03
2018-02-21T07:11:22.752Z,-2.96
2018-02-21T07:12:22.626Z,-3.01
2018-02-21T07:13:22.600Z,-2.97
2018-02-21T07:14:22.559Z,-2.97
2018-02-21T07:15:22.532Z,-2.85
2018-02-21T07:16:22.489Z,-2.81
2018-02-21T07:17:22.490Z,-2.83
2018-02-21T07:18:22.433Z,-2.64
2018-02-21T07:19:22.389Z,-2.67
2018-02-21T07:20:22.551Z,-2.64
2018-02-21T07:21:22.370Z,-2.49
2018-02-21T07:22:22.288Z,-2.55
2018-02-21T07:23:22.259Z,-2.49
2018-02-21T07:24:22.253Z,-2.42
2018-02-21T07:25:22.192Z,-2.40
2018-02-21T07:26:22.158Z,-2.30
2018-02-21T07:27:22.170Z,-2.27
2018-02-21T07:28:22.100Z,-2.18
2018-02-21T07:29:22.068Z,-2.15
2018-02-21T07:30:22.037Z,-2.03
2018-02-21T07:31:22.007Z,-2.00
2018-02-21T07:32:23.072Z,-2.00
2018-02-21T07:33:22.075Z,-1.86
2018-02-21T07:34:21.978Z,-1.78
2018-02-21T07:35:21.871Z,-1.70
2018-02-21T07:36:21.964Z,-1.53
2018-02-21T07:37:21.846Z,-1.60
2018-02-21T07:38:21.875Z,-1.40
2018-02-21T07:39:23.493Z,-1.42
2018-02-21T07:40:22.911Z,-1.28
2018-02-21T07:41:21.793Z,-1.22
2018-02-21T07:42:21.676Z,-1.09
2018-02-21T07:43:22.473Z,-1.10
2018-02-21T07:44:22.531Z,-0.91
2018-02-21T07:45:21.695Z,-0.85
2018-02-21T07:46:21.518Z,-0.82
2018-02-21T07:47:21.487Z,-0.62
2018-02-21T07:48:21.905Z,-0.69
2018-02-21T07:49:21.413Z,-0.52
2018-02-21T07:50:21.486Z,-0.45
2018-02-21T07:51:21.922Z,-0.31
2018-02-21T07:52:21.437Z,-0.33
2018-02-21T07:53:21.276Z,-0.28
2018-02-21T07:54:21.639Z,-0.27
2018-02-21T07:55:21.251Z,-0.22
2018-02-21T07:56:21.911Z,-0.13
2018-02-21T07:57:21.212Z,-0.04
2018-02-21T07:58:21.126Z,0.01
2018-02-21T07:59:21.332Z,0.03
2018-02-21T08:00:23.071Z,0.08
2018-02-21T08:01:21.115Z,0.21
2018-02-21T08:02:22.116Z,0.28
2018-02-21T08:03:22.602Z,0.48
2018-02-21T08:04:21.173Z,0.60
2018-02-21T08:05:21.298Z,0.76
2018-02-21T08:06:21.305Z,0.78
2018-02-21T08:07:21.407Z,0.96
2018-02-21T08:08:21.061Z,1.20
2018-02-21T08:09:21.405Z,1.21
2018-02-21T08:10:22.229Z,1.47
2018-02-21T08:11:21.759Z,1.68
2018-02-21T08:12:21.001Z,1.79
2018-02-21T08:13:22.600Z,1.89
2018-02-21T08:14:21.596Z,1.98
2018-02-21T08:15:20.906Z,2.04
2018-02-21T08:16:20.845Z,2.11
2018-02-21T08:17:21.574Z,2.26
2018-02-21T08:18:21.612Z,2.29
2018-02-21T08:19:35.297Z,2.27
2018-02-21T08:20:21.720Z,2.31
2018-02-21T08:21:21.578Z,2.40
2018-02-21T08:22:20.805Z,2.47
2018-02-21T08:23:20.801Z,2.49
2018-02-21T08:24:20.691Z,2.58
2018-02-21T08:25:20.689Z,2.63
2018-02-21T08:26:22.107Z,2.84
2018-02-21T08:27:20.570Z,3.01
2018-02-21T08:28:21.293Z,3.02
2018-02-21T08:29:21.119Z,3.16
2018-02-21T08:30:21.149Z,3.39
2018-02-21T08:31:21.425Z,3.61
2018-02-21T08:32:20.431Z,3.67
2018-02-21T08:33:20.576Z,3.69
2018-02-21T08:34:20.349Z,3.74
2018-02-21T08:35:21.139Z,3.81
2018-02-21T08:36:21.147Z,4.02
2018-02-21T08:37:20.281Z,4.07
2018-02-21T08:38:20.302Z,4.10
2018-02-21T08:39:21.641Z,4.24
2018-02-21T08:40:21.200Z,4.28
2018-02-21T08:41:21.135Z,4.22
2018-02-21T08:42:20.099Z,4.35
2018-02-21T08:43:20.356Z,4.28
2018-02-21T08:44:21.100Z,4.50
2018-02-21T08:45:20.225Z,4.54
2018-02-21T08:46:20.141Z,4.54
2018-02-21T08:47:20.058Z,4.61
2018-02-21T08:48:20.178Z,4.74
2018-02-21T08:49:21.941Z,4.75
2018-02-21T08:50:21.126Z,4.95
2018-02-21T08:51:19.917Z,5.12
2018-02-21T08:52:19.899Z,5.36
2018-02-21T08:53:20.058Z,5.46
2018-02-21T08:54:19.995Z,5.63
2018-02-21T08:55:19.894Z,5.72
2018-02-21T08:56:19.891Z,5.81
2018-02-21T08:57:20.596Z,5.81
2018-02-21T08:58:20.306Z,6.03
2018-02-21T08:59:19.859Z,6.17
2018-02-21T09:00:19.763Z,6.14
2018-02-21T09:01:19.860Z,6.09
2018-02-21T09:02:19.780Z,6.15
2018-02-21T09:03:19.905Z,6.26
2018-02-21T09:04:20.620Z,6.33
2018-02-21T09:05:19.656Z,6.47
2018-02-21T09:06:19.653Z,6.70
2018-02-21T09:07:19.665Z,6.86
2018-02-21T09:08:19.817Z,6.98
2018-02-21T09:09:19.679Z,7.08
2018-02-21T09:10:19.591Z,7.18
2018-02-21T09:11:19.590Z,7.22
2018-02-21T09:12:19.598Z,7.22
2018-02-21T09:13:19.869Z,7.29
2018-02-21T09:14:19.519Z,7.41
2018-02-21T09:15:20.139Z,7.52
2018-02-21T09:16:19.542Z,7.67
2018-02-21T09:17:19.486Z,7.73
2018-02-21T09:18:19.665Z,7.70
2018-02-21T09:19:19.444Z,7.67
2018-02-21T09:20:19.391Z,7.68
2018-02-21T09:21:20.282Z,7.73
2018-02-21T09:22:20.628Z,7.58
2018-02-21T09:23:19.605Z,7.48
2018-02-21T09:24:19.379Z,7.49
2018-02-21T09:25:19.344Z,7.51
2018-02-21T09:26:19.382Z,7.52
2018-02-21T09:27:19.329Z,7.71
2018-02-21T09:28:19.607Z,7.68
2018-02-21T09:29:19.294Z,7.68
2018-02-21T09:30:20.245Z,7.59
2018-02-21T09:31:20.645Z,7.77
2018-02-21T09:32:20.159Z,7.83
2018-02-21T09:33:20.639Z,7.95
2018-02-21T09:34:19.424Z,8.04
2018-02-21T09:35:19.205Z,7.85
2018-02-21T09:36:19.267Z,7.71
2018-02-21T09:37:20.630Z,7.71
2018-02-21T09:38:20.160Z,7.75
2018-02-21T09:39:19.110Z,7.88
2018-02-21T09:40:19.340Z,8.01
2018-02-21T09:41:19.660Z,7.88
2018-02-21T09:42:19.227Z,8.01
2018-02-21T09:43:19.186Z,7.96
2018-02-21T09:44:19.590Z,7.99
2018-02-21T09:45:19.255Z,7.95
2018-02-21T09:46:19.042Z,8.24
2018-02-21T09:47:19.031Z,8.28
2018-02-21T09:48:19.029Z,8.25
2018-02-21T09:49:19.819Z,8.17
2018-02-21T09:50:18.963Z,8.29
2018-02-21T09:51:20.243Z,8.11
2018-02-21T09:52:18.725Z,8.28
2018-02-21T09:53:20.697Z,8.44
2018-02-21T09:54:20.711Z,8.40
2018-02-21T09:55:19.427Z,8.46
2018-02-21T09:56:19.639Z,8.50
2018-02-21T09:57:18.775Z,8.64
2018-02-21T09:58:18.977Z,8.74
2018-02-21T09:59:20.636Z,8.80
2018-02-21T10:00:18.768Z,8.85
2018-02-21T10:01:18.661Z,8.89
2018-02-21T10:02:18.688Z,9.03
2018-02-21T10:03:18.772Z,8.80
2018-02-21T10:04:18.687Z,8.79
2018-02-21T10:05:18.679Z,8.67
2018-02-21T10:06:18.691Z,8.44
2018-02-21T10:07:18.639Z,8.60
2018-02-21T10:08:18.786Z,8.80
2018-02-21T10:09:18.305Z,8.87
2018-02-21T10:10:18.465Z,8.94
2018-02-21T10:11:18.260Z,8.94
2018-02-21T10:12:18.276Z,8.90
2018-02-21T10:13:18.230Z,9.04
2018-02-21T10:14:18.201Z,9.26
2018-02-21T10:15:18.182Z,9.45
2018-02-21T10:16:18.163Z,9.57
2018-02-21T10:17:18.158Z,9.62
2018-02-21T10:18:18.166Z,9.66
2018-02-21T10:19:18.113Z,9.63
2018-02-21T10:20:18.094Z,9.50
2018-02-21T10:21:18.084Z,9.32
2018-02-21T10:22:18.346Z,9.09
2018-02-21T10:23:18.305Z,8.83
2018-02-21T10:24:18.476Z,8.74
2018-02-21T10:25:18.287Z,8.46
2018-02-21T10:26:18.287Z,8.35
2018-02-21T10:27:18.331Z,8.32
2018-02-21T10:28:18.310Z,8.42
2018-02-21T10:29:18.413Z,8.43
2018-02-21T10:30:18.210Z,8.42
2018-02-21T10:31:18.822Z,8.65
2018-02-21T10:32:18.162Z,8.77
2018-02-21T10:33:19.787Z,8.95
2018-02-21T10:34:18.071Z,9.29
2018-02-21T10:35:18.420Z,9.71
2018-02-21T10:36:19.738Z,10.03
2018-02-21T10:37:19.193Z,10.03
2018-02-21T10:38:19.232Z,9.90
2018-02-21T10:39:18.212Z,9.78
2018-02-21T10:40:19.150Z,9.72
2018-02-21T10:41:18.199Z,9.56
2018-02-21T10:42:18.102Z,9.30
2018-02-21T10:43:17.909Z,9.03
2018-02-21T10:44:17.941Z,8.83
2018-02-21T10:45:18.659Z,8.76
2018-02-21T10:46:17.873Z,8.67
2018-02-21T10:47:18.940Z,8.68
2018-02-21T10:48:18.735Z,8.65
2018-02-21T10:49:17.954Z,8.74
2018-02-21T10:50:17.870Z,8.80
2018-02-21T10:51:19.247Z,8.58
2018-02-21T10:52:17.791Z,8.47
2018-02-21T10:53:18.013Z,8.22
2018-02-21T10:54:17.900Z,8.13
2018-02-21T10:55:18.670Z,8.03
2018-02-21T10:56:17.760Z,8.03
2018-02-21T10:57:17.829Z,8.03
2018-02-21T10:58:17.727Z,8.06
2018-02-21T10:59:17.871Z,8.10
2018-02-21T11:00:17.750Z,8.19
2018-02-21T11:01:17.647Z,8.28
2018-02-21T11:02:17.576Z,8.21
2018-02-21T11:03:18.190Z,8.31
2018-02-21T11:04:18.658Z,8.28
2018-02-21T11:05:17.622Z,8.44
2018-02-21T11:06:18.304Z,8.44
2018-02-21T11:07:17.657Z,8.54
2018-02-21T11:08:17.489Z,8.42
2018-02-21T11:09:19.162Z,8.25
2018-02-21T11:10:18.257Z,8.28
2018-02-21T11:11:17.562Z,8.19
2018-02-21T11:12:18.640Z,8.34
2018-02-21T11:13:17.494Z,8.32
2018-02-21T11:14:17.951Z,8.39
2018-02-21T11:15:17.505Z,8.49
2018-02-21T11:16:18.178Z,8.79
2018-02-21T11:17:18.295Z,8.98
2018-02-21T11:18:17.397Z,9.21
2018-02-21T11:19:19.298Z,9.50
2018-02-21T11:20:17.364Z,9.85
2018-02-21T11:21:17.555Z,9.89
2018-02-21T11:22:17.211Z,9.89
2018-02-21T11:23:17.198Z,10.11
2018-02-21T11:24:18.175Z,10.29
2018-02-21T11:25:18.237Z,10.47
2018-02-21T11:26:17.952Z,10.67
2018-02-21T11:27:17.372Z,11.03
2018-02-21T11:28:17.451Z,11.20
2018-02-21T11:29:17.215Z,11.41
2018-02-21T11:30:17.065Z,11.52
2018-02-21T11:31:17.106Z,11.73
2018-02-21T11:32:17.563Z,11.71
2018-02-21T11:33:17.017Z,11.70
2018-02-21T11:34:17.852Z,11.21
2018-02-21T11:35:17.026Z,10.88
2018-02-21T11:36:16.913Z,10.57
2018-02-21T11:37:17.201Z,10.21
2018-02-21T11:38:18.135Z,9.93
2018-02-21T11:39:17.460Z,9.62
2018-02-21T11:40:16.885Z,9.37
2018-02-21T11:41:17.668Z,9.05
2018-02-21T11:42:16.997Z,8.74
2018-02-21T11:43:17.743Z,8.68
2018-02-21T11:44:16.853Z,9.04
2018-02-21T11:45:17.654Z,9.45
2018-02-21T11:46:18.236Z,9.47
2018-02-21T11:47:18.734Z,9.66
2018-02-21T11:48:17.468Z,10.07
2018-02-21T11:49:16.699Z,10.10
2018-02-21T11:50:16.673Z,9.88
2018-02-21T11:51:18.958Z,9.72
2018-02-21T11:52:16.763Z,9.66
2018-02-21T11:53:16.678Z,10.28
2018-02-21T11:54:16.570Z,10.79
2018-02-21T11:55:16.532Z,11.27
2018-02-21T11:56:17.122Z,11.21
2018-02-21T11:57:16.703Z,11.08
2018-02-21T11:58:17.633Z,10.88
2018-02-21T11:59:17.129Z,10.58
2018-02-21T12:00:16.484Z,10.31
2018-02-21T12:01:17.119Z,9.89
2018-02-21T12:02:17.209Z,9.56
2018-02-21T12:03:16.399Z,9.21
2018-02-21T12:04:16.960Z,8.90
2018-02-21T12:05:16.353Z,8.69
2018-02-21T12:06:16.397Z,8.57
2018-02-21T12:07:16.472Z,8.52
2018-02-21T12:08:17.722Z,8.34
2018-02-21T12:09:16.216Z,8.28
2018-02-21T12:10:17.683Z,8.11
2018-02-21T12:11:16.162Z,7.91
2018-02-21T12:12:16.412Z,7.77
2018-02-21T12:13:15.948Z,7.55
2018-02-21T12:14:15.935Z,7.59
2018-02-21T12:15:17.176Z,7.49
2018-02-21T12:16:16.020Z,7.45
2018-02-21T12:17:15.995Z,7.18
2018-02-21T12:18:15.853Z,7.09
2018-02-21T12:19:15.796Z,7.08
2018-02-21T12:20:16.623Z,7.05
2018-02-21T12:21:18.107Z,7.18
2018-02-21T12:22:15.862Z,7.13
2018-02-21T12:23:17.034Z,7.29
2018-02-21T12:24:15.761Z,7.36
2018-02-21T12:25:15.656Z,7.73
2018-02-21T12:26:15.733Z,8.24
2018-02-21T12:27:15.640Z,8.92
2018-02-21T12:28:15.693Z,9.48
2018-02-21T12:29:15.576Z,9.88
2018-02-21T12:30:15.597Z,9.89
2018-02-21T12:31:15.525Z,9.89
2018-02-21T12:32:15.652Z,9.70
2018-02-21T12:33:15.565Z,9.82
2018-02-21T12:34:15.470Z,9.67
2018-02-21T12:35:15.490Z,9.60
2018-02-21T12:36:16.043Z,9.21
2018-02-21T12:37:15.467Z,8.80
2018-02-21T12:38:16.135Z,8.67
2018-02-21T12:39:15.518Z,8.46
2018-02-21T12:40:15.465Z,8.24
2018-02-21T12:41:16.117Z,7.93
2018-02-21T12:42:16.136Z,7.91
2018-02-21T12:43:15.301Z,7.99
2018-02-21T12:44:15.992Z,7.91
2018-02-21T12:45:15.326Z,7.75
2018-02-21T12:46:15.347Z,7.71
2018-02-21T12:47:15.295Z,7.48
2018-02-21T12:48:16.153Z,7.29
2018-02-21T12:49:15.288Z,7.55
2018-02-21T12:50:15.229Z,7.83
2018-02-21T12:51:15.132Z,7.95
2018-02-21T12:52:15.169Z,8.14
2018-02-21T12:53:15.226Z,8.42
2018-02-21T12:54:15.544Z,8.67
2018-02-21T12:55:15.151Z,8.46
2018-02-21T12:56:15.090Z,8.06
2018-02-21T12:57:16.061Z,7.86
2018-02-21T12:58:15.622Z,7.63
2018-02-21T12:59:15.560Z,7.44
2018-02-21T13:00:14.995Z,7.13
2018-02-21T13:01:14.872Z,6.94